createdAt,value
2022-11-29T00:01:55.101Z,98534.00
2022-11-29T00:04:25.099Z,98537.00
2022-11-29T00:06:54.938Z,98528.00
2022-11-29T00:09:25.049Z,98521.00
2022-11-29T00:12:09.936Z,98522.00
2022-11-29T00:14:40.231Z,98530.00
2022-11-29T00:17:10.202Z,98523.00
2022-11-29T00:19:40.739Z,98515.00
2022-11-29T00:22:10.600Z,98527.00
2022-11-29T00:24:40.453Z,98511.00
2022-11-29T00:27:12.999Z,98519.00
2022-11-29T00:29:42.939Z,98514.00
2022-11-29T00:32:12.821Z,98516.00
2022-11-29T00:34:42.965Z,98514.00
2022-11-29T00:37:13.034Z,98524.00
2022-11-29T00:39:43.515Z,98521.00
2022-11-29T00:42:16.033Z,98526.00
2022-11-29T00:44:46.086Z,98526.00
2022-11-29T00:47:16.102Z,98524.00
2022-11-29T00:49:45.949Z,98528.00
2022-11-29T00:52:15.850Z,98524.00
2022-11-29T00:54:46.040Z,98526.00
2022-11-29T00:57:18.721Z,98539.00
2022-11-29T00:59:48.574Z,98530.00
2022-11-29T01:02:19.152Z,98524.00
2022-11-29T01:04:49.100Z,98526.00
2022-11-29T01:07:19.042Z,98540.00
2022-11-29T01:09:48.995Z,98524.00
2022-11-29T01:12:21.546Z,98539.00
2022-11-29T01:14:51.394Z,98541.00
2022-11-29T01:17:21.300Z,98540.00
2022-11-29T01:19:51.292Z,98530.00
2022-11-29T01:22:21.299Z,98538.00
2022-11-29T01:24:51.412Z,98540.00
2022-11-29T01:27:23.915Z,98534.00
2022-11-29T01:29:54.144Z,98530.00
2022-11-29T01:32:23.984Z,98520.00
2022-11-29T01:34:53.847Z,98517.00
2022-11-29T01:37:23.692Z,98512.00
2022-11-29T01:39:53.636Z,98509.00
2022-11-29T01:42:26.099Z,98524.00
2022-11-29T01:45:30.915Z,98521.00
2022-11-29T01:48:01.417Z,98518.00
2022-11-29T01:50:31.382Z,98516.00
2022-11-29T01:53:01.701Z,98507.00
2022-11-29T01:55:31.685Z,98509.00
2022-11-29T01:58:04.474Z,98513.00
2022-11-29T02:00:34.434Z,98509.00
2022-11-29T02:03:07.103Z,98521.00
2022-11-29T02:05:37.198Z,98523.00
2022-11-29T02:08:07.254Z,98514.00
2022-11-29T02:10:46.542Z,98523.00
2022-11-29T02:13:20.863Z,98525.00
2022-11-29T02:15:56.182Z,98524.00
2022-11-29T02:18:35.172Z,98529.00
2022-11-29T02:21:42.171Z,98526.00
2022-11-29T02:24:44.755Z,98525.00
2022-11-29T02:27:28.928Z,98528.00
2022-11-29T02:30:24.943Z,98527.00
2022-11-29T02:33:23.453Z,98542.00
2022-11-29T02:36:19.132Z,98537.00
2022-11-29T02:39:18.821Z,98539.00
2022-11-29T02:41:59.631Z,98537.00
2022-11-29T02:44:59.470Z,98544.00
2022-11-29T02:47:35.136Z,98542.00
2022-11-29T02:50:35.037Z,98547.00
2022-11-29T02:53:10.810Z,98539.00
2022-11-29T02:55:45.754Z,98558.00
2022-11-29T02:58:21.927Z,98561.00
2022-11-29T03:00:58.720Z,98556.00
2022-11-29T03:03:33.715Z,98556.00
2022-11-29T03:06:14.614Z,98555.00
2022-11-29T03:08:50.652Z,98556.00
2022-11-29T03:11:27.280Z,98560.00
2022-11-29T03:14:09.353Z,98563.00
2022-11-29T03:16:43.452Z,98560.00
2022-11-29T03:19:30.311Z,98571.00
2022-11-29T03:22:13.997Z,98576.00
2022-11-29T03:24:48.615Z,98566.00
2022-11-29T03:27:22.172Z,98573.00
2022-11-29T03:29:55.002Z,98568.00
2022-11-29T03:32:31.263Z,98581.00
2022-11-29T03:35:07.423Z,98578.00
2022-11-29T03:37:47.263Z,98581.00
2022-11-29T03:40:20.286Z,98576.00
2022-11-29T03:42:54.622Z,98584.00
2022-11-29T03:45:28.418Z,98589.00
2022-11-29T03:48:02.968Z,98587.00
2022-11-29T03:50:37.715Z,98586.00
2022-11-29T03:53:17.904Z,98587.00
2022-11-29T03:55:56.934Z,98586.00
2022-11-29T03:58:42.427Z,98573.00
2022-11-29T04:01:44.919Z,98583.00
2022-11-29T04:04:44.341Z,98588.00
2022-11-29T04:07:31.382Z,98586.00
2022-11-29T04:10:19.959Z,98584.00
2022-11-29T04:13:08.594Z,98579.00
2022-11-29T04:15:58.653Z,98576.00
2022-11-29T04:18:58.073Z,98583.00
2022-11-29T04:21:37.647Z,98577.00
2022-11-29T04:24:37.395Z,98589.00
2022-11-29T04:27:42.028Z,98585.00
2022-11-29T04:30:22.211Z,98591.00
2022-11-29T04:33:22.624Z,98597.00
2022-11-29T04:36:19.295Z,98601.00
2022-11-29T04:39:10.861Z,98612.00
2022-11-29T04:42:05.505Z,98606.00
2022-11-29T04:44:50.293Z,98611.00
2022-11-29T04:47:47.065Z,98609.00
2022-11-29T04:50:26.810Z,98615.00
2022-11-29T04:53:21.782Z,98618.00
2022-11-29T04:55:57.623Z,98617.00
2022-11-29T04:58:33.170Z,98618.00
2022-11-29T05:01:10.651Z,98606.00
2022-11-29T05:03:46.781Z,98616.00
2022-11-29T05:06:23.282Z,98622.00
2022-11-29T05:08:59.315Z,98622.00
2022-11-29T05:11:46.418Z,98622.00
2022-11-29T05:14:22.956Z,98620.00
2022-11-29T05:16:57.653Z,98625.00
2022-11-29T05:19:39.984Z,98621.00
2022-11-29T05:22:23.037Z,98629.00
2022-11-29T05:24:58.476Z,98631.00
2022-11-29T05:27:41.170Z,98634.00
2022-11-29T05:30:14.746Z,98637.00
2022-11-29T05:32:58.668Z,98644.00
2022-11-29T05:35:52.278Z,98649.00
2022-11-29T05:38:40.961Z,98650.00
2022-11-29T05:41:20.875Z,98650.00
2022-11-29T05:43:59.244Z,98644.00
2022-11-29T05:46:34.076Z,98656.00
2022-11-29T05:49:13.738Z,98648.00
2022-11-29T05:51:47.661Z,98652.00
2022-11-29T05:54:28.791Z,98648.00
2022-11-29T05:57:06.252Z,98658.00
2022-11-29T05:59:38.400Z,98661.00
2022-11-29T06:02:15.517Z,98666.00
2022-11-29T06:05:00.643Z,98681.00
2022-11-29T06:07:35.468Z,98674.00
2022-11-29T06:10:08.231Z,98664.00
2022-11-29T06:12:38.817Z,98677.00
2022-11-29T06:15:37.281Z,98675.00
2022-11-29T06:18:26.265Z,98681.00
2022-11-29T06:21:05.542Z,98679.00
2022-11-29T06:24:00.367Z,98681.00
2022-11-29T06:26:45.269Z,98700.00
2022-11-29T06:29:27.020Z,98692.00
2022-11-29T06:32:03.460Z,98691.00
2022-11-29T06:34:40.625Z,98689.00
2022-11-29T06:37:18.747Z,98687.00
2022-11-29T06:39:49.218Z,98687.00
2022-11-29T06:42:19.207Z,98693.00
2022-11-29T06:44:49.852Z,98686.00
2022-11-29T06:47:26.610Z,98692.00
2022-11-29T06:50:00.924Z,98689.00
2022-11-29T06:52:40.779Z,98690.00
2022-11-29T06:55:17.299Z,98696.00
2022-11-29T06:57:58.242Z,98697.00
2022-11-29T07:00:30.004Z,98695.00
2022-11-29T07:03:25.980Z,98699.00
2022-11-29T07:05:56.696Z,98694.00
2022-11-29T07:08:29.982Z,98694.00
2022-11-29T07:11:00.907Z,98691.00
2022-11-29T07:13:31.596Z,98688.00
2022-11-29T07:16:07.636Z,98691.00
2022-11-29T07:18:44.802Z,98697.00
2022-11-29T07:21:19.986Z,98697.00
2022-11-29T07:24:00.164Z,98693.00
2022-11-29T07:26:36.203Z,98702.00
2022-11-29T07:29:14.446Z,98711.00
2022-11-29T07:31:51.709Z,98710.00
2022-11-29T07:34:26.428Z,98713.00
2022-11-29T07:37:03.252Z,98708.00
2022-11-29T07:39:44.877Z,98709.00
2022-11-29T07:42:20.963Z,98710.00
2022-11-29T07:45:01.597Z,98706.00
2022-11-29T07:47:35.777Z,98707.00
2022-11-29T07:50:06.324Z,98715.00
2022-11-29T07:52:36.705Z,98711.00
2022-11-29T07:55:13.247Z,98719.00
2022-11-29T07:57:47.123Z,98720.00
2022-11-29T08:00:18.592Z,98713.00
2022-11-29T08:02:49.875Z,98717.00
2022-11-29T08:05:19.996Z,98720.00
2022-11-29T08:07:50.390Z,98722.00
2022-11-29T08:10:22.965Z,98721.00
2022-11-29T08:12:54.431Z,98731.00
2022-11-29T08:15:26.061Z,98724.00
2022-11-29T08:17:56.168Z,98730.00
2022-11-29T08:20:26.172Z,98722.00
2022-11-29T08:22:59.250Z,98728.00
2022-11-29T08:25:32.220Z,98725.00
2022-11-29T08:28:02.110Z,98726.00
2022-11-29T08:30:32.149Z,98734.00
2022-11-29T08:33:02.173Z,98738.00
2022-11-29T08:35:32.256Z,98740.00
2022-11-29T08:38:03.931Z,98749.00
2022-11-29T08:40:36.614Z,98747.00
2022-11-29T08:43:06.664Z,98727.00
2022-11-29T08:45:36.725Z,98752.00
2022-11-29T08:48:06.994Z,98749.00
2022-11-29T08:50:37.037Z,98746.00
2022-11-29T08:53:28.044Z,98747.00
2022-11-29T08:56:17.121Z,98747.00
2022-11-29T08:58:52.445Z,98759.00
2022-11-29T09:01:22.862Z,98749.00
2022-11-29T09:04:08.002Z,98744.00
2022-11-29T09:06:44.657Z,98741.00
2022-11-29T09:09:14.468Z,98745.00
2022-11-29T09:11:49.560Z,98740.00
2022-11-29T09:14:22.304Z,98752.00
2022-11-29T09:16:52.254Z,98748.00
2022-11-29T09:19:22.336Z,98752.00
2022-11-29T09:21:52.244Z,98749.00
2022-11-29T09:24:22.112Z,98743.00
2022-11-29T09:26:54.592Z,98747.00
2022-11-29T09:29:24.628Z,98759.00
2022-11-29T09:31:54.947Z,98758.00
2022-11-29T09:34:25.034Z,98757.00
2022-11-29T09:36:54.969Z,98756.00
2022-11-29T09:39:24.826Z,98764.00
2022-11-29T09:42:15.684Z,98762.00
2022-11-29T09:44:54.788Z,98764.00
2022-11-29T09:47:39.118Z,98762.00
2022-11-29T09:50:24.562Z,98761.00
2022-11-29T09:52:58.706Z,98772.00
2022-11-29T09:55:39.913Z,98771.00
2022-11-29T09:58:15.115Z,98761.00
2022-11-29T10:00:49.414Z,98763.00
2022-11-29T10:03:25.503Z,98757.00
2022-11-29T10:06:00.420Z,98758.00
2022-11-29T10:08:35.438Z,98750.00
2022-11-29T10:11:17.837Z,98760.00
2022-11-29T10:13:54.716Z,98760.00
2022-11-29T10:16:28.437Z,98758.00
2022-11-29T10:19:03.348Z,98767.00
2022-11-29T10:21:37.156Z,98760.00
2022-11-29T10:24:10.270Z,98755.00
2022-11-29T10:26:40.803Z,98757.00
2022-11-29T10:29:16.414Z,98754.00
2022-11-29T10:31:49.539Z,98750.00
2022-11-29T10:34:21.054Z,98756.00
2022-11-29T10:36:53.190Z,98747.00
2022-11-29T10:39:26.299Z,98746.00
2022-11-29T10:41:58.705Z,98755.00
2022-11-29T10:44:32.036Z,98752.00
2022-11-29T10:47:07.828Z,98749.00
2022-11-29T10:49:41.113Z,98743.00
2022-11-29T10:52:20.724Z,98742.00
2022-11-29T10:54:51.470Z,98744.00
2022-11-29T10:57:24.073Z,98750.00
2022-11-29T11:00:09.964Z,98747.00
2022-11-29T11:02:40.274Z,98746.00
2022-11-29T11:05:18.962Z,98748.00
2022-11-29T11:07:49.067Z,98755.00
2022-11-29T11:10:26.525Z,98740.00
2022-11-29T11:13:05.619Z,98742.00
2022-11-29T11:15:38.660Z,98742.00
2022-11-29T11:18:10.198Z,98745.00
2022-11-29T11:20:44.420Z,98733.00
2022-11-29T11:23:27.520Z,98754.00
2022-11-29T11:26:02.507Z,98746.00
2022-11-29T11:28:34.697Z,98757.00
2022-11-29T11:31:09.655Z,98755.00
2022-11-29T11:33:41.185Z,98753.00
2022-11-29T11:36:14.635Z,98761.00
2022-11-29T11:38:52.909Z,98755.00
2022-11-29T11:41:46.039Z,98758.00
2022-11-29T11:44:47.584Z,98751.00
2022-11-29T11:47:22.512Z,98751.00
2022-11-29T11:49:53.673Z,98751.00
2022-11-29T11:52:25.869Z,98754.00
2022-11-29T11:54:58.534Z,98750.00
2022-11-29T11:57:29.720Z,98762.00
2022-11-29T12:00:06.606Z,98757.00
2022-11-29T12:02:44.061Z,98761.00
2022-11-29T12:05:16.411Z,98765.00
2022-11-29T12:10:40.944Z,98766.00
2022-11-29T12:13:20.558Z,98767.00
2022-11-29T12:15:52.850Z,98772.00
2022-11-29T12:18:30.957Z,98773.00
2022-11-29T12:21:06.735Z,98777.00
2022-11-29T12:23:44.383Z,98779.00
2022-11-29T12:26:41.116Z,98785.00
2022-11-29T12:29:13.964Z,98774.00
2022-11-29T12:31:55.575Z,98779.00
2022-11-29T12:34:43.126Z,98787.00
2022-11-29T12:37:18.121Z,98782.00
2022-11-29T12:40:00.162Z,98778.00
2022-11-29T12:42:39.557Z,98782.00
2022-11-29T12:45:33.427Z,98781.00
2022-11-29T12:48:10.945Z,98792.00
2022-11-29T12:50:53.865Z,98795.00
2022-11-29T12:53:33.296Z,98803.00
2022-11-29T12:56:13.754Z,98806.00
2022-11-29T12:58:54.189Z,98804.00
2022-11-29T13:01:31.099Z,98811.00
2022-11-29T13:04:05.152Z,98802.00
2022-11-29T13:06:44.732Z,98804.00
2022-11-29T13:09:52.933Z,98807.00
2022-11-29T13:12:25.074Z,98806.00
2022-11-29T13:14:59.059Z,98810.00
2022-11-29T13:17:35.898Z,98807.00
2022-11-29T13:20:12.467Z,98820.00
2022-11-29T13:22:48.286Z,98813.00
2022-11-29T13:25:19.869Z,98820.00
2022-11-29T13:27:58.509Z,98815.00
2022-11-29T13:30:28.956Z,98824.00
2022-11-29T13:33:02.972Z,98823.00
2022-11-29T13:35:38.969Z,98814.00
2022-11-29T13:38:17.864Z,98836.00
2022-11-29T13:40:55.225Z,98828.00
2022-11-29T13:43:30.756Z,98827.00
2022-11-29T13:46:08.324Z,98828.00
2022-11-29T13:48:40.523Z,98834.00
2022-11-29T13:51:26.941Z,98837.00
2022-11-29T13:54:01.228Z,98833.00
2022-11-29T13:56:36.609Z,98836.00
2022-11-29T13:59:11.663Z,98838.00
2022-11-29T14:01:49.226Z,98841.00
2022-11-29T14:04:39.011Z,98853.00
2022-11-29T14:07:14.734Z,98846.00
2022-11-29T14:09:59.894Z,98838.00
2022-11-29T14:12:39.606Z,98844.00
2022-11-29T14:15:21.311Z,98837.00
2022-11-29T14:17:54.194Z,98846.00
2022-11-29T14:20:47.806Z,98845.00
2022-11-29T14:23:19.258Z,98852.00
2022-11-29T14:26:21.490Z,98852.00
2022-11-29T14:28:56.283Z,98859.00
2022-11-29T14:31:56.718Z,98853.00
2022-11-29T14:34:51.247Z,98856.00
2022-11-29T14:37:37.885Z,98871.00
2022-11-29T14:40:21.292Z,98861.00
2022-11-29T14:42:52.876Z,98863.00
2022-11-29T14:45:31.202Z,98864.00
2022-11-29T14:48:01.846Z,98877.00
2022-11-29T14:50:35.022Z,98877.00
2022-11-29T14:53:05.728Z,98874.00
2022-11-29T14:55:38.400Z,98885.00
2022-11-29T14:58:23.219Z,98885.00
2022-11-29T15:01:16.335Z,98889.00
2022-11-29T15:03:50.568Z,98876.00
2022-11-29T15:06:26.957Z,98887.00
2022-11-29T15:09:04.516Z,98884.00
2022-11-29T15:11:50.931Z,98877.00
2022-11-29T15:14:25.758Z,98879.00
2022-11-29T15:17:05.674Z,98882.00
2022-11-29T15:19:56.152Z,98891.00
2022-11-29T15:22:29.056Z,98893.00
2022-11-29T15:25:02.781Z,98890.00
2022-11-29T15:27:35.148Z,98900.00
2022-11-29T15:30:21.927Z,98902.00
2022-11-29T15:32:54.408Z,98897.00
2022-11-29T15:35:24.428Z,98903.00
2022-11-29T15:37:54.916Z,98890.00
2022-11-29T15:40:29.165Z,98904.00
2022-11-29T15:43:05.204Z,98896.00
2022-11-29T15:45:36.856Z,98903.00
2022-11-29T15:48:19.370Z,98899.00
2022-11-29T15:50:55.480Z,98910.00
2022-11-29T15:53:29.404Z,98907.00
2022-11-29T15:56:00.134Z,98916.00
2022-11-29T15:58:31.313Z,98921.00
2022-11-29T16:01:01.489Z,98920.00
2022-11-29T16:03:36.406Z,98918.00
2022-11-29T16:06:11.873Z,98921.00
2022-11-29T16:08:44.639Z,98917.00
2022-11-29T16:11:18.309Z,98933.00
2022-11-29T16:14:16.862Z,98933.00
2022-11-29T16:16:48.942Z,98936.00
2022-11-29T16:19:29.116Z,98940.00
2022-11-29T16:22:03.870Z,98937.00
2022-11-29T16:24:37.031Z,98943.00
2022-11-29T16:27:08.046Z,98950.00
2022-11-29T16:29:39.972Z,98937.00
2022-11-29T16:32:17.788Z,98941.00
2022-11-29T16:34:50.311Z,98948.00
2022-11-29T16:37:23.175Z,98947.00
2022-11-29T16:39:54.521Z,98941.00
2022-11-29T16:42:26.808Z,98954.00
2022-11-29T16:44:59.872Z,98944.00
2022-11-29T16:47:30.787Z,98951.00
2022-11-29T16:50:16.598Z,98958.00
2022-11-29T16:52:47.542Z,98958.00
2022-11-29T16:55:19.064Z,98949.00
2022-11-29T16:57:50.282Z,98949.00
2022-11-29T17:00:27.882Z,98945.00
2022-11-29T17:02:57.828Z,98953.00
2022-11-29T17:05:30.344Z,98947.00
2022-11-29T17:08:00.326Z,98946.00
2022-11-29T17:10:30.264Z,98943.00
2022-11-29T17:13:01.583Z,98942.00
2022-11-29T17:15:31.424Z,98956.00
2022-11-29T17:18:01.288Z,98947.00
2022-11-29T17:20:34.018Z,98953.00
2022-11-29T17:23:03.928Z,98946.00
2022-11-29T17:25:33.772Z,98947.00
2022-11-29T17:28:03.588Z,98957.00
2022-11-29T17:30:33.518Z,98959.00
2022-11-29T17:33:03.374Z,98960.00
2022-11-29T17:35:37.922Z,98964.00
2022-11-29T17:38:07.816Z,98964.00
2022-11-29T17:40:37.719Z,98964.00
2022-11-29T17:43:07.562Z,98960.00
2022-11-29T17:45:37.574Z,98968.00
2022-11-29T17:48:07.880Z,98969.00
2022-11-29T17:50:40.545Z,98970.00
2022-11-29T17:53:10.527Z,98968.00
2022-11-29T17:55:40.447Z,98966.00
2022-11-29T17:58:10.313Z,98974.00
2022-11-29T18:00:40.235Z,98976.00
2022-11-29T18:03:10.139Z,98983.00
2022-11-29T18:05:42.605Z,98985.00
2022-11-29T18:08:12.532Z,98974.00
2022-11-29T18:10:42.410Z,98976.00
2022-11-29T18:13:12.358Z,98980.00
2022-11-29T18:15:42.559Z,98976.00
2022-11-29T18:18:12.391Z,98979.00
2022-11-29T18:20:44.924Z,98976.00
2022-11-29T18:23:14.788Z,98974.00
2022-11-29T18:25:44.652Z,98976.00
2022-11-29T18:28:14.757Z,98975.00
2022-11-29T18:30:44.747Z,98968.00
2022-11-29T18:33:14.680Z,98977.00
2022-11-29T18:35:47.221Z,98987.00
2022-11-29T18:38:17.262Z,98976.00
2022-11-29T18:40:48.416Z,98988.00
2022-11-29T18:43:19.668Z,98979.00
2022-11-29T18:45:49.817Z,98980.00
2022-11-29T18:48:19.812Z,98981.00
2022-11-29T18:50:52.320Z,98991.00
2022-11-29T18:53:22.337Z,98990.00
2022-11-29T18:56:02.669Z,98986.00
2022-11-29T18:58:32.926Z,98990.00
2022-11-29T19:01:07.287Z,98994.00
2022-11-29T19:03:39.147Z,98994.00
2022-11-29T19:06:13.239Z,99001.00
2022-11-29T19:08:43.551Z,98993.00
2022-11-29T19:11:14.945Z,99001.00
2022-11-29T19:13:44.972Z,99002.00
2022-11-29T19:16:17.909Z,99007.00
2022-11-29T19:18:48.399Z,99009.00
2022-11-29T19:21:22.732Z,99005.00
2022-11-29T19:23:54.980Z,98992.00
2022-11-29T19:26:26.742Z,98999.00
2022-11-29T19:28:56.968Z,99008.00
2022-11-29T19:31:27.691Z,99014.00
2022-11-29T19:33:58.307Z,99016.00
2022-11-29T19:36:32.737Z,99014.00
2022-11-29T19:39:03.570Z,99010.00
2022-11-29T19:41:34.806Z,99008.00
2022-11-29T19:44:06.076Z,99016.00
2022-11-29T19:46:37.666Z,99026.00
2022-11-29T19:49:09.007Z,99023.00
2022-11-29T19:51:41.525Z,99034.00
2022-11-29T19:54:12.981Z,99035.00
2022-11-29T19:56:43.159Z,99032.00
2022-11-29T19:59:13.125Z,99026.00
2022-11-29T20:01:43.377Z,99033.00
2022-11-29T20:04:16.829Z,99032.00
2022-11-29T20:06:51.629Z,99028.00
2022-11-29T20:09:21.952Z,99033.00
2022-11-29T20:11:51.887Z,99031.00
2022-11-29T20:14:21.821Z,99035.00
2022-11-29T20:16:51.791Z,99026.00
2022-11-29T20:19:21.653Z,99030.00
2022-11-29T20:21:54.141Z,99033.00
2022-11-29T20:24:24.065Z,99023.00
2022-11-29T20:26:53.942Z,99028.00
2022-11-29T20:29:27.284Z,99024.00
2022-11-29T20:31:57.180Z,99040.00
2022-11-29T20:34:27.852Z,99034.00
2022-11-29T20:37:13.014Z,99030.00
2022-11-29T20:39:47.271Z,99038.00
2022-11-29T20:42:47.596Z,99037.00
2022-11-29T20:45:18.893Z,99034.00
2022-11-29T20:47:53.900Z,99047.00
2022-11-29T20:50:25.656Z,99051.00
2022-11-29T20:53:10.197Z,99041.00
2022-11-29T20:55:46.445Z,99037.00
2022-11-29T20:58:19.480Z,99041.00
2022-11-29T21:00:49.476Z,99053.00
2022-11-29T21:03:20.566Z,99049.00
2022-11-29T21:05:50.899Z,99057.00
2022-11-29T21:08:24.720Z,99055.00
2022-11-29T21:10:55.124Z,99051.00
2022-11-29T21:13:26.524Z,99051.00
2022-11-29T21:15:57.422Z,99047.00
2022-11-29T21:18:30.421Z,99050.00
2022-11-29T21:21:08.146Z,99049.00
2022-11-29T21:23:48.558Z,99053.00
2022-11-29T21:26:20.380Z,99059.00
2022-11-29T21:28:58.810Z,99053.00
2022-11-29T21:31:29.496Z,99062.00
2022-11-29T21:34:00.027Z,99058.00
2022-11-29T21:36:30.099Z,99065.00
2022-11-29T21:39:05.267Z,99067.00
2022-11-29T21:41:36.439Z,99061.00
2022-11-29T21:44:07.739Z,99068.00
2022-11-29T21:46:38.326Z,99063.00
2022-11-29T21:49:08.457Z,99064.00
2022-11-29T21:51:38.382Z,99072.00
2022-11-29T21:54:10.908Z,99069.00
2022-11-29T21:56:40.799Z,99069.00
2022-11-29T21:59:10.767Z,99066.00
2022-11-29T22:01:40.814Z,99063.00
2022-11-29T22:04:10.919Z,99070.00
2022-11-29T22:06:41.042Z,99067.00
2022-11-29T22:09:14.010Z,99060.00
2022-11-29T22:11:43.971Z,99065.00
2022-11-29T22:14:18.971Z,99063.00
2022-11-29T22:16:50.808Z,99063.00
2022-11-29T22:19:23.052Z,99068.00
2022-11-29T22:21:54.048Z,99065.00
2022-11-29T22:24:28.354Z,99068.00
2022-11-29T22:26:58.868Z,99070.00
2022-11-29T22:29:29.039Z,99073.00
2022-11-29T22:32:01.323Z,99069.00
2022-11-29T22:34:31.524Z,99069.00
2022-11-29T22:37:01.635Z,99084.00
2022-11-29T22:39:34.076Z,99070.00
2022-11-29T22:42:04.028Z,99071.00
2022-11-29T22:44:34.106Z,99073.00
2022-11-29T22:47:04.038Z,99071.00
2022-11-29T22:49:33.985Z,99075.00
2022-11-29T22:52:03.833Z,99078.00
2022-11-29T22:54:36.437Z,99073.00
2022-11-29T22:57:06.468Z,99084.00
2022-11-29T22:59:36.466Z,99085.00
2022-11-29T23:02:06.359Z,99081.00
2022-11-29T23:04:36.265Z,99084.00
2022-11-29T23:07:06.202Z,99080.00
2022-11-29T23:09:38.666Z,99090.00
2022-11-29T23:12:09.199Z,99080.00
2022-11-29T23:14:39.117Z,99088.00
2022-11-29T23:17:09.080Z,99086.00
2022-11-29T23:19:38.959Z,99079.00
2022-11-29T23:22:08.745Z,99084.00
2022-11-29T23:24:42.767Z,99077.00
2022-11-29T23:27:12.710Z,99071.00
2022-11-29T23:29:42.624Z,99071.00
2022-11-29T23:32:12.476Z,99085.00
2022-11-29T23:34:42.419Z,99072.00
2022-11-29T23:37:12.323Z,99077.00
2022-11-29T23:39:44.800Z,99075.00
2022-11-29T23:42:14.679Z,99073.00
2022-11-29T23:44:44.861Z,99076.00
2022-11-29T23:47:16.331Z,99075.00
2022-11-29T23:49:46.250Z,99065.00
2022-11-29T23:52:16.193Z,99052.00
2022-11-29T23:54:48.895Z,99065.00
2022-11-29T23:57:19.024Z,99053.00
2022-11-29T23:59:50.200Z,99061.00
